Time;durP1;ratioP1;P1;durP2;ratioP2;P2;SDS_P1;SDS_P2;PMS_P1;PMS_P2;Temp;Humidity;BMP_temperature;BMP_pressure;BME280_temperature;BME280_humidity;BME280_pressure;Samples;Min_cycle;Max_cycle;Signal;HPM_P1;HPM_P2
2021/06/29 00:00:45;;;;;;;5.88;3.08;;;46.00;60.70;;;;;;4986048;28;20241;-89
2021/06/29 00:03:17;;;;;;;4.10;3.28;;;46.00;61.30;;;;;;4982913;28;20208;-89
2021/06/29 00:05:49;;;;;;;4.50;2.85;;;46.00;63.20;;;;;;4990155;28;20198;-90
2021/06/29 00:08:20;;;;;;;4.05;3.38;;;46.00;64.00;;;;;;4998181;28;20207;-88
2021/06/29 00:10:51;;;;;;;5.07;2.90;;;45.90;62.70;;;;;;4990552;28;20207;-89
2021/06/29 00:13:22;;;;;;;3.40;3.00;;;45.80;61.10;;;;;;4978536;28;20266;-89
2021/06/29 00:15:54;;;;;;;3.85;3.00;;;45.80;61.10;;;;;;4976981;28;20203;-88
2021/06/29 00:18:24;;;;;;;3.30;3.00;;;45.80;60.70;;;;;;4975133;28;20204;-88
2021/06/29 00:20:57;;;;;;;5.22;4.00;;;45.70;62.80;;;;;;4975589;28;20234;-88
2021/06/29 00:23:28;;;;;;;3.53;3.20;;;45.60;62.50;;;;;;4974533;28;20318;-88
2021/06/29 00:25:59;;;;;;;3.55;3.25;;;45.60;62.10;;;;;;4955867;28;20269;-88
2021/06/29 00:28:32;;;;;;;4.07;3.58;;;45.50;61.10;;;;;;4955629;29;20223;-88
2021/06/29 00:31:04;;;;;;;3.88;3.05;;;45.40;61.30;;;;;;4955232;29;20246;-88
2021/06/29 00:33:35;;;;;;;4.00;3.08;;;45.40;63.20;;;;;;4966091;28;20284;-88
2021/06/29 00:36:08;;;;;;;6.78;3.50;;;45.50;63.00;;;;;;4975053;28;20234;-88
2021/06/29 00:38:38;;;;;;;4.85;3.53;;;45.20;62.60;;;;;;4975504;28;20676;-88
2021/06/29 00:41:09;;;;;;;4.00;3.28;;;45.30;65.10;;;;;;4974130;28;20211;-88
2021/06/29 00:43:45;;;;;;;4.07;3.50;;;45.30;64.70;;;;;;4986228;28;20230;-86
2021/06/29 00:46:18;;;;;;;4.13;3.72;;;45.30;65.00;;;;;;4994422;28;20300;-87
2021/06/29 00:48:49;;;;;;;4.70;3.55;;;45.30;63.90;;;;;;4987434;28;20214;-88
2021/06/29 00:51:22;;;;;;;3.95;3.20;;;45.50;63.70;;;;;;4955980;28;20212;-88
2021/06/29 00:53:54;;;;;;;4.07;3.67;;;45.90;62.30;;;;;;4969884;28;20253;-88
2021/06/29 00:56:25;;;;;;;3.67;3.38;;;46.20;60.90;;;;;;4974885;28;20211;-88
2021/06/29 00:58:56;;;;;;;4.25;3.50;;;46.30;61.70;;;;;;4975759;28;20675;-88
2021/06/29 01:01:26;;;;;;;3.60;3.30;;;46.70;62.50;;;;;;4974079;28;20210;-89
2021/06/29 01:03:58;;;;;;;4.90;3.90;;;47.10;63.30;;;;;;4974608;28;20209;-89
2021/06/29 01:06:30;;;;;;;4.05;3.70;;;47.20;61.00;;;;;;4985036;28;20210;-88
2021/06/29 01:09:02;;;;;;;4.15;3.78;;;47.30;59.90;;;;;;4956990;28;20318;-88
2021/06/29 01:11:33;;;;;;;4.30;4.00;;;47.60;60.90;;;;;;4956379;28;20215;-87
2021/06/29 01:14:13;;;;;;;4.80;4.05;;;47.50;61.30;;;;;;4955716;28;20270;-88
2021/06/29 01:16:45;;;;;;;4.53;3.92;;;47.50;59.70;;;;;;4975052;28;20301;-88
2021/06/29 01:19:19;;;;;;;4.35;4.05;;;47.50;59.60;;;;;;4974449;28;20231;-87
2021/06/29 01:21:52;;;;;;;5.15;3.78;;;47.70;61.10;;;;;;4972538;28;20272;-88
2021/06/29 01:24:28;;;;;;;6.35;3.75;;;47.70;62.60;;;;;;4631655;28;10000037;-88
2021/06/29 01:27:11;;;;;;;4.15;3.90;;;47.80;60.50;;;;;;4973039;28;20301;-88
2021/06/29 01:29:51;;;;;;;6.03;4.25;;;47.70;61.70;;;;;;4973466;28;20242;-88
2021/06/29 01:32:20;;;;;;;6.03;4.32;;;47.50;61.50;;;;;;4966273;28;20238;-88
2021/06/29 01:34:51;;;;;;;4.55;4.15;;;47.60;60.60;;;;;;4974339;28;20254;-88
2021/06/29 01:37:23;;;;;;;5.00;4.45;;;47.20;60.60;;;;;;4964956;28;20237;-88
2021/06/29 01:39:57;;;;;;;4.57;4.18;;;47.40;60.80;;;;;;4973081;28;20226;-87
2021/06/29 01:42:28;;;;;;;5.65;4.43;;;47.30;61.80;;;;;;4974399;28;20262;-89
2021/06/29 01:45:00;;;;;;;4.78;4.43;;;47.40;60.50;;;;;;4974793;28;20205;-89
2021/06/29 01:47:37;;;;;;;4.53;4.22;;;47.60;60.00;;;;;;4975781;28;20295;-88
2021/06/29 01:50:15;;;;;;;4.50;4.20;;;47.70;60.60;;;;;;4993477;28;20533;-88
2021/06/29 01:52:48;;;;;;;4.97;4.50;;;47.30;62.40;;;;;;4954796;29;20258;-88
2021/06/29 01:55:20;;;;;;;4.85;4.43;;;47.20;59.70;;;;;;4961037;28;20243;-88
2021/06/29 01:57:51;;;;;;;5.00;4.50;;;47.10;60.10;;;;;;4973621;28;20211;-88
2021/06/29 02:00:23;;;;;;;5.05;4.50;;;47.00;60.60;;;;;;4974317;28;20199;-88
2021/06/29 02:02:54;;;;;;;7.95;5.25;;;47.00;61.60;;;;;;4976230;28;20755;-88
2021/06/29 02:05:26;;;;;;;6.57;4.75;;;46.80;60.60;;;;;;4973831;28;20221;-88
2021/06/29 02:07:59;;;;;;;5.57;5.07;;;46.90;60.90;;;;;;4957722;28;20203;-88
2021/06/29 02:10:31;;;;;;;5.60;5.10;;;46.60;60.90;;;;;;4974777;28;20211;-89
2021/06/29 02:13:02;;;;;;;5.28;4.50;;;46.70;61.80;;;;;;4965858;28;20208;-89
2021/06/29 02:15:34;;;;;;;5.07;4.78;;;46.70;61.50;;;;;;4962921;28;20326;-89
2021/06/29 02:18:05;;;;;;;4.82;4.53;;;46.50;61.70;;;;;;4976962;28;20215;-88
2021/06/29 02:20:36;;;;;;;6.35;4.90;;;46.40;61.00;;;;;;4974685;28;20219;-90
2021/06/29 02:23:09;;;;;;;4.68;4.28;;;46.40;60.90;;;;;;4970628;28;20203;-87
2021/06/29 02:25:40;;;;;;;5.75;4.70;;;46.30;61.30;;;;;;4961683;28;20207;-87
2021/06/29 02:28:10;;;;;;;5.25;4.95;;;46.50;60.60;;;;;;4972310;28;20687;-86
2021/06/29 02:30:42;;;;;;;5.53;5.07;;;46.20;60.50;;;;;;4969714;28;20285;-87
2021/06/29 02:33:13;;;;;;;5.63;5.13;;;46.20;62.10;;;;;;4995150;28;20210;-89
2021/06/29 02:35:44;;;;;;;5.90;5.30;;;45.90;62.00;;;;;;5002006;28;20218;-90
2021/06/29 02:38:17;;;;;;;6.57;5.50;;;45.70;65.40;;;;;;4998074;28;20249;-88
2021/06/29 02:40:48;;;;;;;6.68;6.18;;;45.00;65.60;;;;;;4976938;28;20207;-87
2021/06/29 02:43:18;;;;;;;6.32;5.85;;;43.60;65.30;;;;;;4974870;28;20266;-87
2021/06/29 02:45:49;;;;;;;7.20;6.60;;;42.70;65.20;;;;;;4974729;28;20207;-87
2021/06/29 02:48:20;;;;;;;7.75;6.55;;;41.90;67.90;;;;;;4976366;28;20211;-87
2021/06/29 02:50:51;;;;;;;7.68;7.15;;;41.10;67.80;;;;;;4975818;28;20261;-87
2021/06/29 02:53:23;;;;;;;7.80;7.10;;;40.70;69.40;;;;;;4975403;28;20200;-88
2021/06/29 02:55:54;;;;;;;8.15;6.93;;;40.30;71.80;;;;;;4976604;28;20246;-88
2021/06/29 02:58:25;;;;;;;7.57;6.97;;;39.90;72.50;;;;;;4972821;28;20672;-87
2021/06/29 03:00:57;;;;;;;8.00;7.07;;;39.50;74.90;;;;;;4974115;28;20203;-89
2021/06/29 03:03:27;;;;;;;8.38;7.72;;;39.20;76.90;;;;;;4970540;28;20217;-90
2021/06/29 03:05:58;;;;;;;9.88;7.88;;;38.80;77.80;;;;;;4973775;28;20207;-87
2021/06/29 03:08:31;;;;;;;9.18;8.38;;;38.60;75.60;;;;;;4959821;28;20584;-88
2021/06/29 03:11:03;;;;;;;9.75;8.68;;;38.40;74.80;;;;;;4974567;28;20199;-88
2021/06/29 03:13:34;;;;;;;10.18;8.75;;;38.10;76.90;;;;;;4975364;28;20258;-88
2021/06/29 03:16:06;;;;;;;9.55;8.90;;;37.90;78.30;;;;;;4974791;28;20245;-88
2021/06/29 03:18:37;;;;;;;10.52;9.27;;;37.80;79.00;;;;;;4976318;28;20196;-88
2021/06/29 03:21:10;;;;;;;11.95;9.73;;;37.70;80.20;;;;;;4962313;28;20199;-87
2021/06/29 03:23:42;;;;;;;11.05;9.00;;;37.40;81.10;;;;;;4965574;28;20243;-86
2021/06/29 03:26:14;;;;;;;11.18;9.80;;;37.20;82.90;;;;;;4966222;28;20368;-86
2021/06/29 03:28:45;;;;;;;11.82;10.57;;;37.10;82.10;;;;;;4976137;28;20265;-86
2021/06/29 03:31:17;;;;;;;11.32;10.35;;;36.90;81.60;;;;;;4971700;28;20234;-87
2021/06/29 03:33:48;;;;;;;10.68;9.88;;;36.80;84.00;;;;;;4970266;28;20295;-85
2021/06/29 03:36:19;;;;;;;12.10;11.15;;;36.60;85.50;;;;;;4966759;28;20239;-86
2021/06/29 03:38:52;;;;;;;11.60;10.48;;;36.40;86.90;;;;;;4975360;28;20215;-86
2021/06/29 03:41:23;;;;;;;11.90;11.13;;;36.10;87.20;;;;;;4971125;28;20258;-86
2021/06/29 03:43:54;;;;;;;11.98;10.93;;;36.00;88.30;;;;;;4972031;28;20211;-86
2021/06/29 03:46:25;;;;;;;12.32;11.43;;;35.80;89.20;;;;;;4963381;28;20215;-86
2021/06/29 03:48:55;;;;;;;12.95;11.85;;;35.60;89.40;;;;;;4974581;28;20233;-86
2021/06/29 03:51:26;;;;;;;13.40;12.23;;;35.40;89.90;;;;;;4958149;28;20578;-86
2021/06/29 03:53:59;;;;;;;12.80;11.88;;;35.20;90.90;;;;;;4973632;28;20218;-85
2021/06/29 03:56:31;;;;;;;13.80;12.70;;;35.00;90.80;;;;;;4955238;29;20247;-86
2021/06/29 03:59:03;;;;;;;14.98;13.75;;;34.80;91.30;;;;;;4964644;28;20720;-86
2021/06/29 04:01:34;;;;;;;14.93;13.73;;;34.70;91.80;;;;;;4973074;28;20697;-86
2021/06/29 04:04:06;;;;;;;16.10;14.88;;;34.50;92.20;;;;;;4961326;28;20608;-86
2021/06/29 04:06:39;;;;;;;16.17;14.88;;;34.30;92.20;;;;;;4968916;28;20215;-87
2021/06/29 04:09:12;;;;;;;15.48;14.27;;;34.20;92.30;;;;;;4974144;28;20261;-86
2021/06/29 04:11:43;;;;;;;15.50;14.13;;;34.10;92.70;;;;;;4974094;28;20258;-86
2021/06/29 04:14:15;;;;;;;15.77;14.55;;;33.90;93.10;;;;;;4955275;28;20207;-86
2021/06/29 04:16:45;;;;;;;15.50;14.43;;;33.80;93.40;;;;;;4962242;28;20732;-86
2021/06/29 04:19:16;;;;;;;17.27;16.02;;;33.60;93.70;;;;;;4973426;28;20211;-86
2021/06/29 04:21:47;;;;;;;16.95;15.65;;;33.50;93.80;;;;;;4972991;28;20999;-87
2021/06/29 04:24:19;;;;;;;16.35;15.13;;;33.40;94.10;;;;;;4973629;28;20202;-87
2021/06/29 04:26:50;;;;;;;17.15;15.88;;;33.30;94.40;;;;;;4973283;28;20723;-86
2021/06/29 04:29:21;;;;;;;17.13;15.73;;;33.10;94.60;;;;;;4960200;28;20266;-86
2021/06/29 04:31:52;;;;;;;16.60;15.35;;;33.00;95.40;;;;;;4955959;28;20589;-86
2021/06/29 04:34:23;;;;;;;15.73;14.57;;;32.90;95.70;;;;;;4973405;28;20269;-86
2021/06/29 04:36:54;;;;;;;17.17;15.93;;;32.70;95.70;;;;;;4972133;28;20227;-87
2021/06/29 04:39:26;;;;;;;16.65;15.48;;;32.60;96.00;;;;;;4975516;28;20624;-86
2021/06/29 04:41:57;;;;;;;16.90;15.63;;;32.50;96.20;;;;;;4965338;28;20243;-86
2021/06/29 04:44:28;;;;;;;17.05;15.73;;;32.40;96.10;;;;;;4956629;28;20207;-86
2021/06/29 04:46:59;;;;;;;17.75;16.50;;;32.40;96.60;;;;;;4972849;28;20207;-86
2021/06/29 04:49:30;;;;;;;17.83;16.55;;;32.20;97.50;;;;;;4969674;28;20582;-86
2021/06/29 04:52:01;;;;;;;17.40;16.20;;;32.10;97.30;;;;;;4962110;28;20238;-85
2021/06/29 04:54:33;;;;;;;17.77;16.58;;;32.00;97.70;;;;;;4973933;28;20385;-86
2021/06/29 04:57:04;;;;;;;17.15;16.00;;;31.90;98.00;;;;;;4974171;28;20242;-86
2021/06/29 04:59:35;;;;;;;16.98;15.80;;;31.90;98.30;;;;;;4973467;28;20207;-86
2021/06/29 05:02:06;;;;;;;17.30;16.20;;;31.80;98.40;;;;;;4995114;28;20210;-87
2021/06/29 05:04:37;;;;;;;17.77;16.30;;;31.80;98.70;;;;;;4998086;28;20191;-86
2021/06/29 05:07:08;;;;;;;17.85;16.45;;;31.70;99.10;;;;;;4991843;28;20254;-86
2021/06/29 05:09:40;;;;;;;17.77;16.35;;;31.50;99.20;;;;;;4974156;28;20714;-86
2021/06/29 05:12:12;;;;;;;18.45;17.05;;;31.50;99.70;;;;;;4972951;28;20203;-86
2021/06/29 05:14:42;;;;;;;18.63;17.02;;;31.40;99.90;;;;;;4973373;28;20238;-86
2021/06/29 05:17:13;;;;;;;19.20;17.70;;;31.30;99.90;;;;;;4973988;28;20704;-86
2021/06/29 05:19:44;;;;;;;19.88;18.27;;;31.10;99.90;;;;;;4969685;28;20207;-85
2021/06/29 05:22:14;;;;;;;19.10;17.55;;;31.10;99.90;;;;;;4976067;28;20253;-85
2021/06/29 05:24:47;;;;;;;18.58;17.15;;;31.00;99.90;;;;;;4974730;28;20302;-85
2021/06/29 05:27:17;;;;;;;17.75;16.40;;;30.90;99.90;;;;;;4976137;28;20301;-85
2021/06/29 05:29:48;;;;;;;18.33;16.85;;;30.80;99.90;;;;;;4981104;28;20230;-86
2021/06/29 05:32:19;;;;;;;17.70;16.50;;;30.80;99.90;;;;;;4993339;28;20210;-86
2021/06/29 05:34:49;;;;;;;17.50;16.20;;;30.70;99.90;;;;;;4995357;28;20199;-89
2021/06/29 05:37:20;;;;;;;18.65;17.35;;;30.70;99.90;;;;;;4993203;28;20226;-87
2021/06/29 05:39:53;;;;;;;17.20;15.80;;;30.60;99.90;;;;;;4987266;28;20209;-90
2021/06/29 05:42:24;;;;;;;18.95;17.65;;;30.60;99.90;;;;;;4977264;28;20721;-86
2021/06/29 05:44:55;;;;;;;18.27;16.90;;;30.50;99.90;;;;;;4961862;28;20211;-86
2021/06/29 05:47:26;;;;;;;18.60;17.05;;;30.50;99.90;;;;;;4956851;29;20215;-86
2021/06/29 05:49:57;;;;;;;18.20;16.80;;;30.50;99.90;;;;;;4971337;28;20199;-85
2021/06/29 05:52:29;;;;;;;18.17;16.67;;;30.40;99.90;;;;;;4971557;28;20238;-85
2021/06/29 05:55:02;;;;;;;19.15;17.50;;;30.40;99.90;;;;;;4952696;28;20241;-86
2021/06/29 05:57:33;;;;;;;17.83;16.45;;;30.30;99.90;;;;;;4972547;28;20270;-86
2021/06/29 06:00:05;;;;;;;18.27;16.97;;;30.30;99.90;;;;;;4975463;28;20726;-85
2021/06/29 06:02:38;;;;;;;18.80;17.13;;;30.20;99.90;;;;;;4961693;28;20286;-86
2021/06/29 06:05:10;;;;;;;18.42;16.92;;;30.20;99.90;;;;;;4957481;28;20211;-85
2021/06/29 06:07:41;;;;;;;17.73;16.43;;;30.00;99.90;;;;;;4976048;28;20241;-87
2021/06/29 06:10:15;;;;;;;18.97;17.30;;;30.00;99.90;;;;;;4975182;28;20226;-86
2021/06/29 06:12:46;;;;;;;18.95;17.55;;;29.90;99.90;;;;;;4974863;28;20238;-86
2021/06/29 06:15:16;;;;;;;19.23;17.47;;;29.80;99.90;;;;;;4974965;28;20246;-85
2021/06/29 06:17:47;;;;;;;20.47;18.57;;;29.70;99.90;;;;;;4975677;28;20266;-85
2021/06/29 06:20:18;;;;;;;18.93;17.60;;;29.70;99.90;;;;;;4975105;28;20289;-86
2021/06/29 06:22:49;;;;;;;19.47;18.00;;;29.70;99.90;;;;;;4976601;28;20211;-85
2021/06/29 06:25:22;;;;;;;19.33;17.90;;;29.70;99.90;;;;;;4976076;28;20242;-87
2021/06/29 06:27:53;;;;;;;19.93;18.37;;;29.60;99.90;;;;;;4975341;28;20663;-85
2021/06/29 06:30:24;;;;;;;19.63;18.30;;;29.50;99.90;;;;;;4975371;28;20210;-85
2021/06/29 06:32:55;;;;;;;20.37;18.87;;;29.50;99.90;;;;;;4976718;28;20210;-86
2021/06/29 06:35:26;;;;;;;21.07;19.27;;;29.40;99.90;;;;;;4966455;28;20210;-85
2021/06/29 06:37:57;;;;;;;20.90;19.40;;;29.40;99.90;;;;;;4977310;28;20604;-85
2021/06/29 06:40:30;;;;;;;21.07;19.27;;;29.30;99.90;;;;;;4975631;28;20239;-87
2021/06/29 06:43:00;;;;;;;19.87;18.47;;;29.30;99.90;;;;;;4978474;28;20245;-88
2021/06/29 06:45:31;;;;;;;19.73;18.13;;;29.20;99.90;;;;;;4974400;28;20243;-86
2021/06/29 06:48:02;;;;;;;20.60;18.87;;;29.20;99.90;;;;;;4980326;28;20226;-86
2021/06/29 06:50:33;;;;;;;20.47;18.77;;;29.10;99.90;;;;;;4976101;28;20204;-87
2021/06/29 06:53:04;;;;;;;19.77;18.13;;;29.00;99.90;;;;;;4966469;28;20250;-87
2021/06/29 06:55:36;;;;;;;19.50;18.10;;;28.90;99.90;;;;;;4963426;28;20300;-85
2021/06/29 06:58:07;;;;;;;20.33;18.37;;;28.80;99.90;;;;;;4956736;29;20308;-86
2021/06/29 07:00:38;;;;;;;19.57;17.93;;;28.80;99.90;;;;;;4612851;28;9999785;-86
2021/06/29 07:03:09;;;;;;;20.33;18.80;;;28.60;99.90;;;;;;4963256;28;20207;-86
2021/06/29 07:05:40;;;;;;;20.97;18.93;;;28.50;99.90;;;;;;4979447;28;20222;-86
2021/06/29 07:08:11;;;;;;;21.27;19.53;;;28.60;99.90;;;;;;4993561;28;20206;-86
2021/06/29 07:10:43;;;;;;;20.73;19.03;;;28.70;99.90;;;;;;4991934;28;20210;-86
2021/06/29 07:13:14;;;;;;;20.90;19.20;;;28.70;99.90;;;;;;4991595;28;20631;-86
2021/06/29 07:15:44;;;;;;;20.87;19.37;;;28.60;99.90;;;;;;4985845;28;20211;-86
2021/06/29 07:18:16;;;;;;;19.53;18.23;;;28.50;99.90;;;;;;4975268;28;20706;-86
2021/06/29 07:20:49;;;;;;;21.70;20.10;;;28.40;99.90;;;;;;4974705;28;20231;-86
2021/06/29 07:23:21;;;;;;;21.17;19.67;;;28.30;99.90;;;;;;4958907;28;20238;-85
2021/06/29 07:25:54;;;;;;;20.40;19.00;;;28.30;99.90;;;;;;4976709;28;20265;-86
2021/06/29 07:28:24;;;;;;;21.37;19.73;;;28.20;99.90;;;;;;4976501;28;20253;-85
2021/06/29 07:30:55;;;;;;;21.10;19.47;;;28.20;99.90;;;;;;4996930;28;20195;-85
2021/06/29 07:33:26;;;;;;;20.57;18.97;;;28.20;99.90;;;;;;4998055;28;20213;-86
2021/06/29 07:35:56;;;;;;;21.87;19.87;;;28.20;99.90;;;;;;5002505;28;20218;-85
2021/06/29 07:38:28;;;;;;;21.07;19.50;;;28.10;99.90;;;;;;4994944;28;20679;-85
2021/06/29 07:41:01;;;;;;;20.97;19.23;;;28.00;99.90;;;;;;4976047;28;20229;-85
2021/06/29 07:43:31;;;;;;;19.63;18.33;;;28.00;99.90;;;;;;4994970;28;20202;-85
2021/06/29 07:46:02;;;;;;;20.10;18.70;;;28.00;99.90;;;;;;4994672;28;20265;-86
2021/06/29 07:48:33;;;;;;;20.53;19.13;;;28.10;99.90;;;;;;4994608;28;20211;-86
2021/06/29 07:51:06;;;;;;;18.80;17.40;;;28.10;99.90;;;;;;4993514;28;20244;-86
2021/06/29 07:53:38;;;;;;;18.90;17.60;;;28.00;99.90;;;;;;4994523;28;20675;-86
2021/06/29 07:56:14;;;;;;;19.50;18.00;;;28.10;99.90;;;;;;4994319;28;20666;-86
2021/06/29 07:58:45;;;;;;;18.47;17.00;;;28.00;99.90;;;;;;4991837;28;20262;-87
2021/06/29 08:01:18;;;;;;;17.73;16.13;;;27.90;99.90;;;;;;4993625;28;20261;-87
2021/06/29 08:03:49;;;;;;;16.80;15.67;;;27.90;99.90;;;;;;4994504;28;20205;-86
2021/06/29 08:06:19;;;;;;;17.27;15.63;;;27.80;99.90;;;;;;4982565;28;20294;-86
2021/06/29 08:08:50;;;;;;;16.97;15.60;;;27.70;99.90;;;;;;4974437;28;20664;-84
2021/06/29 08:11:23;;;;;;;17.70;16.17;;;27.60;99.90;;;;;;4973992;28;20211;-85
2021/06/29 08:13:54;;;;;;;17.00;15.60;;;27.50;99.90;;;;;;4974099;28;20207;-87
2021/06/29 08:16:24;;;;;;;17.10;15.60;;;27.50;99.90;;;;;;4971680;28;20595;-86
2021/06/29 08:18:55;;;;;;;16.87;15.13;;;27.40;99.90;;;;;;4972065;28;20235;-84
2021/06/29 08:21:26;;;;;;;17.27;15.93;;;27.30;99.90;;;;;;4970626;28;20207;-85
2021/06/29 08:23:57;;;;;;;17.00;15.70;;;27.20;99.90;;;;;;4970639;28;20203;-85
2021/06/29 08:26:29;;;;;;;15.63;14.43;;;27.10;99.90;;;;;;4970244;28;20246;-85
2021/06/29 08:29:02;;;;;;;15.23;14.07;;;27.00;99.90;;;;;;4970254;28;20224;-85
2021/06/29 08:31:33;;;;;;;15.50;14.20;;;26.90;99.90;;;;;;4971483;28;20257;-84
2021/06/29 08:34:04;;;;;;;14.13;13.13;;;26.80;99.90;;;;;;4963960;28;20206;-85
2021/06/29 08:36:41;;;;;;;14.97;13.93;;;26.60;99.90;;;;;;4966331;28;20306;-85
2021/06/29 08:39:12;;;;;;;15.10;13.90;;;26.50;99.90;;;;;;4972557;28;20309;-86
2021/06/29 08:41:47;;;;;;;12.30;11.00;;;26.40;99.90;;;;;;4973012;28;20278;-86
2021/06/29 08:44:18;;;;;;;11.03;9.33;;;26.20;99.90;;;;;;4989138;28;20249;-85
2021/06/29 08:46:48;;;;;;;9.63;8.73;;;25.50;99.90;;;;;;4993262;28;20603;-85
2021/06/29 08:49:19;;;;;;;11.37;8.43;;;25.30;99.90;;;;;;4965365;28;20659;-85
2021/06/29 08:51:51;;;;;;;10.03;7.13;;;25.20;99.90;;;;;;4953027;28;20230;-85
2021/06/29 08:54:23;;;;;;;8.43;7.03;;;25.00;99.90;;;;;;4954441;29;20248;-85
2021/06/29 08:56:56;;;;;;;9.83;7.20;;;24.70;99.90;;;;;;4954009;28;20219;-85
2021/06/29 08:59:26;;;;;;;15.00;7.60;;;24.20;99.90;;;;;;4953936;28;20267;-85
2021/06/29 09:01:57;;;;;;;11.23;6.80;;;23.80;99.90;;;;;;4953517;28;20250;-85
2021/06/29 09:04:51;;;;;;;9.73;6.80;;;23.60;99.90;;;;;;4954210;29;20219;-85
2021/06/29 09:07:24;;;;;;;22.67;6.73;;;23.40;99.90;;;;;;4973466;28;20277;-85
2021/06/29 09:09:56;;;;;;;7.73;5.90;;;23.20;99.90;;;;;;4972484;28;20293;-85
2021/06/29 09:12:48;;;;;;;10.80;6.40;;;22.90;99.90;;;;;;4973547;28;20202;-85
2021/06/29 09:15:40;;;;;;;10.30;6.30;;;22.70;99.90;;;;;;4970093;28;20691;-85
2021/06/29 09:18:22;;;;;;;7.93;5.80;;;22.50;99.90;;;;;;4973495;28;20226;-85
2021/06/29 09:20:56;;;;;;;9.00;6.03;;;22.30;99.90;;;;;;4972561;28;20211;-86
2021/06/29 09:23:29;;;;;;;9.67;6.27;;;22.20;99.90;;;;;;4974960;28;20253;-86
2021/06/29 09:26:02;;;;;;;8.30;6.00;;;22.00;99.90;;;;;;4978230;28;20265;-85
2021/06/29 09:28:35;;;;;;;9.23;6.03;;;21.90;99.90;;;;;;4978322;28;20277;-86
2021/06/29 09:31:09;;;;;;;7.03;5.57;;;21.80;99.90;;;;;;4977121;28;20203;-86
2021/06/29 09:33:41;;;;;;;7.87;5.70;;;21.80;99.90;;;;;;4977737;28;20249;-86
2021/06/29 09:36:14;;;;;;;8.37;5.73;;;21.60;99.90;;;;;;4977281;28;20214;-84
2021/06/29 09:38:46;;;;;;;8.23;5.63;;;21.40;99.90;;;;;;4990527;28;20361;-86
2021/06/29 09:41:20;;;;;;;9.00;5.50;;;21.20;99.90;;;;;;4996627;28;20670;-85
2021/06/29 09:43:55;;;;;;;9.07;5.60;;;21.00;99.90;;;;;;4997367;28;20202;-83
2021/06/29 09:46:28;;;;;;;9.17;5.33;;;20.80;99.90;;;;;;4996226;28;20241;-84
2021/06/29 09:49:01;;;;;;;9.93;5.60;;;20.80;99.90;;;;;;4994858;28;21092;-83
2021/06/29 09:51:48;;;;;;;8.53;5.40;;;20.70;99.90;;;;;;4996699;28;20202;-84
2021/06/29 09:54:20;;;;;;;10.33;5.93;;;20.50;99.90;;;;;;4997122;28;20248;-83
2021/06/29 09:56:52;;;;;;;8.17;5.17;;;20.20;99.90;;;;;;5008643;28;20201;-85
2021/06/29 09:59:26;;;;;;;8.67;5.40;;;20.30;99.90;;;;;;5019459;28;20239;-84
2021/06/29 10:02:07;;;;;;;6.57;5.63;;;20.30;99.90;;;;;;5011523;28;20547;-84
2021/06/29 10:04:38;;;;;;;8.97;5.23;;;20.20;99.90;;;;;;4998091;28;20729;-83
2021/06/29 10:07:19;;;;;;;9.97;5.20;;;20.00;99.90;;;;;;4979306;28;20258;-84
2021/06/29 10:10:16;;;;;;;7.67;4.73;;;20.00;99.90;;;;;;4976306;28;20293;-86
2021/06/29 10:12:47;;;;;;;12.87;5.40;;;19.90;99.90;;;;;;4976907;28;20211;-84
2021/06/29 10:15:19;;;;;;;6.97;5.33;;;19.90;99.90;;;;;;4976108;28;20207;-82
2021/06/29 10:17:50;;;;;;;6.50;5.17;;;19.80;99.90;;;;;;4977040;28;20241;-85
2021/06/29 10:20:26;;;;;;;7.03;5.10;;;19.80;99.90;;;;;;4975897;28;20230;-85
2021/06/29 10:22:58;;;;;;;9.10;5.20;;;19.80;99.90;;;;;;4977111;28;20234;-85
2021/06/29 10:25:29;;;;;;;10.70;5.07;;;19.60;99.90;;;;;;4976421;28;20215;-84
2021/06/29 10:28:00;;;;;;;9.17;5.10;;;19.60;99.90;;;;;;4975974;28;20306;-84
2021/06/29 10:30:33;;;;;;;6.63;5.10;;;19.50;99.90;;;;;;4975052;28;20689;-85
2021/06/29 10:33:05;;;;;;;9.40;5.13;;;19.40;99.90;;;;;;4976509;28;20565;-84
2021/06/29 10:35:36;;;;;;;7.27;5.00;;;19.40;99.90;;;;;;4981392;28;20226;-84
2021/06/29 10:38:08;;;;;;;7.07;5.13;;;19.30;99.90;;;;;;4995982;28;20218;-85
2021/06/29 10:40:39;;;;;;;9.67;4.67;;;19.30;99.90;;;;;;4995136;28;20230;-85
2021/06/29 10:43:10;;;;;;;6.87;4.30;;;19.30;99.90;;;;;;4984852;28;20203;-84
2021/06/29 10:45:43;;;;;;;6.20;4.60;;;19.30;99.90;;;;;;4967864;28;20214;-84
2021/06/29 10:48:22;;;;;;;10.17;5.10;;;19.30;99.90;;;;;;4976966;28;20215;-84
2021/06/29 10:50:54;;;;;;;8.70;4.93;;;19.20;99.90;;;;;;4975951;28;20569;-84
2021/06/29 10:53:40;;;;;;;6.73;5.00;;;19.10;99.90;;;;;;4976642;28;20218;-84
2021/06/29 10:56:16;;;;;;;8.87;5.20;;;19.10;99.90;;;;;;4978424;28;20249;-84
2021/06/29 10:58:48;;;;;;;7.67;4.97;;;19.10;99.90;;;;;;4978592;28;20213;-84
2021/06/29 11:01:31;;;;;;;8.53;5.60;;;19.10;99.90;;;;;;4978507;28;20250;-85
2021/06/29 11:04:03;;;;;;;7.93;5.07;;;19.10;99.90;;;;;;4980080;28;20207;-84
2021/06/29 11:06:37;;;;;;;8.33;5.67;;;19.10;99.90;;;;;;4984019;28;20219;-84
2021/06/29 11:09:08;;;;;;;9.83;5.17;;;19.10;99.90;;;;;;4998662;28;20222;-84
2021/06/29 11:11:39;;;;;;;7.40;5.50;;;19.10;99.90;;;;;;4997764;28;20202;-85
2021/06/29 11:14:37;;;;;;;8.30;5.60;;;19.10;99.90;;;;;;4992029;28;20203;-84
2021/06/29 11:17:10;;;;;;;9.00;6.47;;;19.10;99.90;;;;;;4979020;28;20249;-84
2021/06/29 11:20:12;;;;;;;11.97;5.90;;;19.10;99.90;;;;;;4977933;28;20238;-84
2021/06/29 11:22:54;;;;;;;8.90;5.47;;;19.20;99.90;;;;;;4973894;28;20239;-85
2021/06/29 11:25:46;;;;;;;8.57;5.60;;;19.20;99.90;;;;;;4975497;28;20262;-84
2021/06/29 11:28:39;;;;;;;7.40;5.97;;;19.20;99.90;;;;;;4974885;28;20219;-84
2021/06/29 11:31:13;;;;;;;8.83;5.07;;;19.20;99.90;;;;;;4986597;28;20274;-85
2021/06/29 11:33:56;;;;;;;7.47;5.87;;;19.20;99.90;;;;;;4987482;28;20290;-84
2021/06/29 11:36:45;;;;;;;10.97;5.20;;;19.20;99.90;;;;;;4974814;28;20307;-83
2021/06/29 11:39:34;;;;;;;7.20;5.47;;;19.20;99.90;;;;;;4974975;28;20282;-85
2021/06/29 11:42:22;;;;;;;9.27;5.60;;;19.20;99.90;;;;;;4980243;28;20219;-84
2021/06/29 11:44:55;;;;;;;7.40;5.47;;;19.20;99.90;;;;;;4975044;28;20238;-83
2021/06/29 11:47:26;;;;;;;8.20;5.00;;;19.20;99.90;;;;;;4975382;28;20246;-83
2021/06/29 11:50:01;;;;;;;9.07;5.23;;;19.20;99.90;;;;;;4974178;28;20217;-84
2021/06/29 11:52:33;;;;;;;11.30;5.70;;;19.20;99.90;;;;;;4974543;28;20245;-83
2021/06/29 11:55:15;;;;;;;10.90;5.70;;;19.20;99.90;;;;;;4974317;28;20206;-83
2021/06/29 11:57:48;;;;;;;6.60;4.93;;;19.20;99.90;;;;;;4974471;28;20699;-83
2021/06/29 12:00:22;;;;;;;6.30;5.40;;;19.10;99.90;;;;;;4973418;28;20381;-84
2021/06/29 12:02:55;;;;;;;8.33;5.30;;;19.10;99.90;;;;;;4975084;28;20293;-86
2021/06/29 12:05:29;;;;;;;7.27;5.27;;;19.10;99.90;;;;;;4978437;28;20389;-83
2021/06/29 12:08:03;;;;;;;7.80;5.50;;;19.10;99.90;;;;;;4993642;28;20203;-84
2021/06/29 12:10:35;;;;;;;6.43;4.73;;;19.10;99.90;;;;;;4993188;28;20732;-84
2021/06/29 12:13:07;;;;;;;9.03;5.50;;;19.20;99.90;;;;;;4993929;28;20679;-84
2021/06/29 12:15:40;;;;;;;7.50;5.33;;;19.20;99.90;;;;;;4993700;28;20226;-84
2021/06/29 12:18:12;;;;;;;9.87;4.87;;;19.10;99.90;;;;;;4993827;28;20229;-85
2021/06/29 12:20:49;;;;;;;7.47;4.97;;;19.10;99.90;;;;;;4993145;28;20245;-84
2021/06/29 12:23:21;;;;;;;8.83;5.13;;;19.10;99.90;;;;;;4993973;28;20317;-84
2021/06/29 12:25:55;;;;;;;8.77;5.47;;;18.90;99.90;;;;;;4994010;28;20206;-85
2021/06/29 12:28:27;;;;;;;8.37;5.70;;;19.00;99.90;;;;;;5003277;28;20198;-85
2021/06/29 12:30:59;;;;;;;8.00;5.20;;;19.00;99.90;;;;;;4996548;28;20202;-85
2021/06/29 12:33:32;;;;;;;7.93;4.90;;;18.90;99.90;;;;;;4992861;28;20203;-86
2021/06/29 12:36:07;;;;;;;8.77;5.00;;;18.90;99.90;;;;;;4981188;28;20674;-84
2021/06/29 12:38:42;;;;;;;8.50;5.07;;;18.90;99.90;;;;;;4980000;28;20724;-84
2021/06/29 12:41:19;;;;;;;9.07;5.50;;;19.00;99.90;;;;;;4967628;28;20659;-84
2021/06/29 12:43:55;;;;;;;10.63;5.23;;;19.00;99.90;;;;;;4974385;28;20234;-84
2021/06/29 12:46:30;;;;;;;7.30;5.33;;;19.00;99.90;;;;;;4973579;28;20245;-84
2021/06/29 12:49:04;;;;;;;7.87;5.40;;;19.10;99.90;;;;;;4973476;28;20207;-84
2021/06/29 12:51:38;;;;;;;8.10;5.23;;;19.10;99.90;;;;;;4972793;28;20234;-85
2021/06/29 12:54:11;;;;;;;7.17;5.10;;;19.00;99.90;;;;;;4973935;28;20215;-84
2021/06/29 12:56:44;;;;;;;6.17;5.30;;;19.10;99.90;;;;;;4973608;28;20616;-83
2021/06/29 12:59:16;;;;;;;6.53;5.03;;;19.00;99.90;;;;;;4973492;28;20219;-84
2021/06/29 13:01:53;;;;;;;7.40;5.03;;;19.10;99.90;;;;;;4972109;28;20686;-84
2021/06/29 13:04:26;;;;;;;8.63;5.13;;;19.10;99.90;;;;;;4973533;28;20207;-84
2021/06/29 13:07:06;;;;;;;5.60;4.80;;;19.10;99.90;;;;;;4989428;28;20245;-84